Time;durP1;ratioP1;P1;durP2;ratioP2;P2;SDS_P1;SDS_P2;PMS_P1;PMS_P2;Temp;Humidity;BMP_temperature;BMP_pressure;BME280_temperature;BME280_humidity;BME280_pressure;Samples;Min_cycle;Max_cycle;Signal;HPM_P1;HPM_P2
2021/10/15 00:01:02;;;;;;;18.58;12.90;;;17.30;82.50;;;;;;4230489;27;20043;-71
2021/10/15 00:03:06;;;;;;;20.58;13.70;;;17.30;82.50;;;;;;4248379;27;20108;-68
2021/10/15 00:05:09;;;;;;;22.67;14.85;;;17.30;82.50;;;;;;4250967;27;20059;-65
2021/10/15 00:07:18;;;;;;;21.17;13.63;;;17.30;82.50;;;;;;4248116;27;20112;-65
2021/10/15 00:09:26;;;;;;;20.13;12.95;;;17.30;82.50;;;;;;4248196;27;20054;-68
2021/10/15 00:11:29;;;;;;;19.20;13.35;;;17.30;82.60;;;;;;4247909;27;20039;-66
2021/10/15 00:13:32;;;;;;;20.30;13.95;;;17.30;82.60;;;;;;4247378;27;20124;-68
2021/10/15 00:15:35;;;;;;;19.35;13.20;;;17.30;82.60;;;;;;4248047;27;20054;-65
2021/10/15 00:17:38;;;;;;;19.70;13.27;;;17.20;82.50;;;;;;4247558;27;20108;-65
2021/10/15 00:19:46;;;;;;;18.85;13.75;;;17.30;82.60;;;;;;4247836;27;20096;-65
2021/10/15 00:21:49;;;;;;;18.80;13.02;;;17.30;82.60;;;;;;4248123;27;20399;-68
2021/10/15 00:23:59;;;;;;;18.85;12.48;;;17.20;82.50;;;;;;4248245;27;20123;-66
2021/10/15 00:26:06;;;;;;;20.85;13.25;;;17.20;82.50;;;;;;4247727;27;20059;-67
2021/10/15 00:28:09;;;;;;;20.88;13.85;;;17.30;82.60;;;;;;4247717;27;20055;-66
2021/10/15 00:30:17;;;;;;;18.17;12.50;;;17.20;82.50;;;;;;4231162;28;20048;-65
2021/10/15 00:32:25;;;;;;;18.95;12.57;;;17.20;82.50;;;;;;4239679;27;20051;-65
2021/10/15 00:34:28;;;;;;;18.77;12.93;;;17.20;82.60;;;;;;4247663;27;20043;-68
2021/10/15 00:36:36;;;;;;;17.95;12.07;;;17.20;82.50;;;;;;4247589;27;20055;-64
2021/10/15 00:38:44;;;;;;;16.20;12.13;;;17.20;82.50;;;;;;4243629;27;20063;-67
2021/10/15 00:40:53;;;;;;;17.98;12.57;;;17.20;82.50;;;;;;4247362;27;20050;-64
2021/10/15 00:42:56;;;;;;;18.88;12.68;;;17.20;82.60;;;;;;4247409;27;20051;-64
2021/10/15 00:44:59;;;;;;;17.33;11.98;;;17.20;82.60;;;;;;4247388;27;20127;-63
2021/10/15 00:47:06;;;;;;;19.85;12.30;;;17.20;82.60;;;;;;4246978;27;20051;-65
2021/10/15 00:49:15;;;;;;;17.65;12.10;;;17.20;82.60;;;;;;4247259;27;20043;-68
2021/10/15 00:51:19;;;;;;;18.63;11.45;;;17.20;83.10;;;;;;4247395;27;20080;-65
2021/10/15 00:53:27;;;;;;;21.73;11.98;;;17.20;82.60;;;;;;4247345;27;20461;-65
2021/10/15 00:55:35;;;;;;;16.33;10.75;;;17.20;82.60;;;;;;4247485;27;20415;-64
2021/10/15 00:57:44;;;;;;;18.42;11.25;;;17.20;82.60;;;;;;4247234;27;20068;-65
2021/10/15 00:59:47;;;;;;;17.30;12.00;;;17.20;82.60;;;;;;4247172;27;20035;-67
2021/10/15 01:01:50;;;;;;;16.45;10.95;;;17.20;82.60;;;;;;4247308;27;20051;-64
2021/10/15 01:03:59;;;;;;;17.25;11.30;;;17.10;82.60;;;;;;4247323;27;20043;-64
2021/10/15 01:06:07;;;;;;;19.13;11.57;;;17.10;82.60;;;;;;4247287;27;20439;-65
2021/10/15 01:08:10;;;;;;;16.70;11.30;;;17.20;82.60;;;;;;4247339;27;20047;-68
2021/10/15 01:10:18;;;;;;;19.90;11.82;;;17.10;82.60;;;;;;4236835;27;20050;-65
2021/10/15 01:12:26;;;;;;;19.63;11.55;;;17.10;82.60;;;;;;4247631;27;20055;-65
2021/10/15 01:14:32;;;;;;;16.67;10.43;;;17.10;82.60;;;;;;4247053;27;20051;-66
2021/10/15 01:16:34;;;;;;;16.90;10.85;;;17.10;82.60;;;;;;4247467;27;20062;-66
2021/10/15 01:18:39;;;;;;;16.88;10.77;;;17.10;82.60;;;;;;4247355;27;20460;-68
2021/10/15 01:20:49;;;;;;;17.63;10.95;;;17.10;82.60;;;;;;4248527;27;20104;-68
2021/10/15 01:22:56;;;;;;;19.58;11.10;;;17.10;82.60;;;;;;4248394;27;20043;-68
2021/10/15 01:25:05;;;;;;;15.70;10.75;;;17.10;82.60;;;;;;4247191;27;20077;-71
2021/10/15 01:27:09;;;;;;;17.50;10.20;;;17.10;82.60;;;;;;4231312;28;20498;-77
2021/10/15 01:29:17;;;;;;;15.10;10.45;;;17.10;82.60;;;;;;4223145;27;20495;-75
2021/10/15 01:31:27;;;;;;;18.58;10.45;;;17.10;82.60;;;;;;4249093;27;20047;-73
2021/10/15 01:33:30;;;;;;;16.20;9.70;;;17.10;82.60;;;;;;4248459;27;20051;-68
2021/10/15 01:35:38;;;;;;;17.38;10.55;;;17.10;82.60;;;;;;4248505;27;20120;-75
2021/10/15 01:37:47;;;;;;;16.67;10.02;;;17.10;82.60;;;;;;4248395;27;20587;-69
2021/10/15 01:39:55;;;;;;;16.17;10.32;;;17.10;82.60;;;;;;4248948;27;20049;-67
2021/10/15 01:42:03;;;;;;;17.13;10.65;;;17.10;82.60;;;;;;4230908;27;20108;-71
2021/10/15 01:44:06;;;;;;;15.10;9.68;;;17.10;82.60;;;;;;4248800;27;20111;-70
2021/10/15 01:46:09;;;;;;;17.73;10.25;;;17.10;82.60;;;;;;4248183;27;20055;-68
2021/10/15 01:48:12;;;;;;;16.77;9.82;;;17.10;82.60;;;;;;4247667;27;20047;-67
2021/10/15 01:50:15;;;;;;;17.05;10.35;;;17.10;82.60;;;;;;4246370;27;20490;-68
2021/10/15 01:52:18;;;;;;;16.30;10.45;;;17.00;82.60;;;;;;4246668;27;20115;-64
2021/10/15 01:54:28;;;;;;;15.23;9.90;;;17.10;82.70;;;;;;4246170;27;20050;-65
2021/10/15 01:56:37;;;;;;;14.63;9.32;;;17.10;82.60;;;;;;4246393;27;20058;-65
2021/10/15 01:58:40;;;;;;;14.77;9.60;;;17.10;82.60;;;;;;4246133;27;20567;-68
2021/10/15 02:00:48;;;;;;;16.05;9.48;;;17.10;82.60;;;;;;4245646;27;20555;-67
2021/10/15 02:02:56;;;;;;;12.98;8.98;;;17.10;82.60;;;;;;4246413;27;20494;-65
2021/10/15 02:04:59;;;;;;;14.65;9.18;;;17.10;82.60;;;;;;4249235;27;20084;-67
2021/10/15 02:07:07;;;;;;;14.48;8.77;;;17.10;82.60;;;;;;4245892;27;20108;-66
2021/10/15 02:09:14;;;;;;;14.45;9.52;;;17.00;82.60;;;;;;4246269;27;20129;-64
2021/10/15 02:11:19;;;;;;;15.35;10.20;;;17.00;82.60;;;;;;4246115;27;20051;-65
2021/10/15 02:13:26;;;;;;;14.00;9.13;;;17.00;82.60;;;;;;4246475;27;20483;-63
2021/10/15 02:15:34;;;;;;;15.93;9.05;;;17.00;82.50;;;;;;4246022;27;20047;-65
2021/10/15 02:17:38;;;;;;;12.55;9.05;;;17.10;82.60;;;;;;4245890;27;20043;-65
2021/10/15 02:19:46;;;;;;;13.10;9.05;;;17.00;82.50;;;;;;4246320;27;20662;-64
2021/10/15 02:21:54;;;;;;;16.35;8.90;;;17.00;82.50;;;;;;4245956;27;20039;-69
2021/10/15 02:23:57;;;;;;;12.85;8.35;;;17.00;82.60;;;;;;4246134;27;20039;-68
2021/10/15 02:26:05;;;;;;;12.70;8.55;;;17.00;82.50;;;;;;4245976;27;20391;-63
2021/10/15 02:28:14;;;;;;;13.48;8.55;;;17.00;82.60;;;;;;4246086;27;20499;-64
2021/10/15 02:30:18;;;;;;;15.02;8.90;;;17.00;82.60;;;;;;4246154;27;20047;-66
2021/10/15 02:32:21;;;;;;;18.40;9.50;;;17.00;82.60;;;;;;4245700;27;20385;-67
2021/10/15 02:34:29;;;;;;;11.73;8.32;;;17.00;82.60;;;;;;4246082;27;20512;-68
2021/10/15 02:36:32;;;;;;;14.45;8.45;;;17.00;82.60;;;;;;4245338;27;20100;-66
2021/10/15 02:38:35;;;;;;;13.13;8.93;;;17.00;82.60;;;;;;4245709;27;20051;-66
2021/10/15 02:40:38;;;;;;;12.40;8.32;;;17.00;82.60;;;;;;4245762;27;20724;-64
2021/10/15 02:42:46;;;;;;;13.00;7.97;;;17.00;82.50;;;;;;4244665;28;20059;-64
2021/10/15 02:44:50;;;;;;;11.85;8.40;;;17.00;82.50;;;;;;4245782;28;20051;-66
2021/10/15 02:46:58;;;;;;;12.65;8.10;;;17.00;82.60;;;;;;4245016;28;20888;-64
2021/10/15 02:49:06;;;;;;;11.68;8.43;;;17.00;82.60;;;;;;4245532;27;20059;-66
2021/10/15 02:51:14;;;;;;;13.80;7.50;;;16.90;82.50;;;;;;4245765;28;20039;-66
2021/10/15 02:53:17;;;;;;;13.10;8.57;;;17.00;82.50;;;;;;4245541;28;20081;-64
2021/10/15 02:55:25;;;;;;;12.35;7.68;;;16.90;82.50;;;;;;4245929;28;20044;-68
2021/10/15 02:57:28;;;;;;;10.43;7.35;;;16.90;82.50;;;;;;4245291;28;20055;-68
2021/10/15 02:59:36;;;;;;;11.02;7.70;;;17.00;82.60;;;;;;4245798;28;20047;-68
2021/10/15 03:01:40;;;;;;;11.95;7.43;;;16.90;82.40;;;;;;4245262;28;20051;-64
2021/10/15 03:03:48;;;;;;;10.70;7.30;;;16.90;82.50;;;;;;4245661;28;20043;-65
2021/10/15 03:05:56;;;;;;;11.57;7.75;;;16.90;82.50;;;;;;4259014;27;20043;-68
2021/10/15 03:08:04;;;;;;;12.90;7.55;;;16.90;82.50;;;;;;4249068;27;20100;-64
2021/10/15 03:10:08;;;;;;;11.68;7.30;;;16.90;82.50;;;;;;4245509;28;20419;-64
2021/10/15 03:12:16;;;;;;;12.40;8.10;;;16.90;82.50;;;;;;4245158;28;20120;-65
2021/10/15 03:14:19;;;;;;;10.73;7.40;;;16.90;82.50;;;;;;4245409;28;20043;-68
2021/10/15 03:16:27;;;;;;;10.73;7.65;;;16.90;82.50;;;;;;4245496;28;20520;-66
2021/10/15 03:18:37;;;;;;;13.57;7.63;;;16.90;82.50;;;;;;4245120;28;20051;-66
2021/10/15 03:20:45;;;;;;;12.00;7.82;;;16.90;82.50;;;;;;4245683;28;20103;-66
2021/10/15 03:22:48;;;;;;;10.50;7.40;;;16.90;82.60;;;;;;4245369;28;20038;-68
2021/10/15 03:24:56;;;;;;;11.68;7.30;;;16.90;82.50;;;;;;4245585;28;20393;-67
2021/10/15 03:26:59;;;;;;;10.93;7.30;;;16.90;82.50;;;;;;4245785;28;20047;-68
2021/10/15 03:29:06;;;;;;;12.50;7.28;;;16.90;82.60;;;;;;4245365;28;20063;-64
2021/10/15 03:31:14;;;;;;;10.18;6.90;;;16.90;82.50;;;;;;4245686;28;20047;-65
2021/10/15 03:33:22;;;;;;;13.77;7.60;;;16.90;82.60;;;;;;4227767;28;20055;-66
2021/10/15 03:35:26;;;;;;;10.88;6.82;;;16.90;82.60;;;;;;4245228;28;20043;-65
2021/10/15 03:37:34;;;;;;;11.23;7.45;;;16.90;82.60;;;;;;4245547;28;20085;-66
2021/10/15 03:39:37;;;;;;;10.18;7.53;;;16.90;82.60;;;;;;4243610;28;20051;-66
2021/10/15 03:41:40;;;;;;;11.20;6.78;;;16.90;82.60;;;;;;4245166;28;20482;-67
2021/10/15 03:43:48;;;;;;;11.48;7.57;;;16.80;82.60;;;;;;4227814;28;20044;-64
2021/10/15 03:45:56;;;;;;;10.43;7.03;;;16.90;82.60;;;;;;4245499;28;20267;-66
2021/10/15 03:48:04;;;;;;;11.10;6.88;;;16.80;82.50;;;;;;4245624;27;20096;-65
2021/10/15 03:50:09;;;;;;;11.30;7.30;;;16.80;82.60;;;;;;4248093;27;20055;-67
2021/10/15 03:52:18;;;;;;;9.55;6.70;;;16.80;82.60;;;;;;4248815;27;20051;-63
2021/10/15 03:54:26;;;;;;;11.27;6.95;;;16.80;82.50;;;;;;4248421;27;20055;-64
2021/10/15 03:56:29;;;;;;;11.35;7.32;;;16.80;82.60;;;;;;4248564;27;20112;-64
2021/10/15 03:58:36;;;;;;;11.82;6.97;;;16.80;82.60;;;;;;4248753;27;20046;-67
2021/10/15 04:00:44;;;;;;;10.80;7.13;;;16.80;82.60;;;;;;4248615;27;20039;-69
2021/10/15 04:02:47;;;;;;;9.32;6.65;;;16.80;82.60;;;;;;4248809;27;20120;-74
2021/10/15 04:04:55;;;;;;;10.68;6.82;;;16.80;82.60;;;;;;4254236;27;20055;-67
2021/10/15 04:07:03;;;;;;;11.55;7.43;;;16.80;82.60;;;;;;4253435;27;20078;-70
2021/10/15 04:09:07;;;;;;;9.75;6.68;;;16.80;82.60;;;;;;4249662;27;20051;-68
2021/10/15 04:11:16;;;;;;;9.35;6.60;;;16.80;82.60;;;;;;4238814;27;20051;-69
2021/10/15 04:13:19;;;;;;;11.40;7.00;;;16.80;82.60;;;;;;4250241;27;20384;-69
2021/10/15 04:15:27;;;;;;;8.98;6.55;;;16.80;82.60;;;;;;4249915;27;20056;-64
2021/10/15 04:17:35;;;;;;;10.95;6.68;;;16.80;82.60;;;;;;4250419;27;20051;-68
2021/10/15 04:19:38;;;;;;;12.98;6.78;;;16.80;82.60;;;;;;4250018;27;20043;-69
2021/10/15 04:21:45;;;;;;;8.93;6.30;;;16.80;82.60;;;;;;4250773;27;20499;-69
2021/10/15 04:23:48;;;;;;;10.30;6.50;;;16.80;82.60;;;;;;4250767;27;20074;-72
2021/10/15 04:25:58;;;;;;;11.48;6.93;;;16.80;82.60;;;;;;4249791;27;20633;-65
2021/10/15 04:28:00;;;;;;;9.52;6.72;;;16.80;82.60;;;;;;4249251;27;20051;-67
2021/10/15 04:30:09;;;;;;;10.07;6.35;;;16.80;82.60;;;;;;4249569;27;20112;-71
2021/10/15 04:32:17;;;;;;;10.55;7.03;;;16.70;82.60;;;;;;4250162;27;20059;-69
2021/10/15 04:34:25;;;;;;;11.35;6.85;;;16.70;82.60;;;;;;4248533;27;20055;-64
2021/10/15 04:36:29;;;;;;;12.68;7.60;;;16.80;82.60;;;;;;4247412;27;20104;-64
2021/10/15 04:38:36;;;;;;;10.02;6.70;;;16.80;82.60;;;;;;4247840;27;20059;-64
2021/10/15 04:40:44;;;;;;;11.30;7.10;;;16.70;82.50;;;;;;4247570;27;20047;-64
2021/10/15 04:42:49;;;;;;;11.43;6.32;;;16.80;82.60;;;;;;4247934;27;20428;-64
2021/10/15 04:44:56;;;;;;;12.20;7.03;;;16.70;82.60;;;;;;4247651;27;20043;-67
2021/10/15 04:46:59;;;;;;;12.65;7.00;;;16.70;82.60;;;;;;4247825;27;20601;-63
2021/10/15 04:49:07;;;;;;;9.23;6.20;;;16.80;82.70;;;;;;4230012;27;20047;-64
2021/10/15 04:51:15;;;;;;;10.10;6.70;;;16.70;82.60;;;;;;4247262;27;20123;-65
2021/10/15 04:53:18;;;;;;;9.73;7.28;;;16.70;82.60;;;;;;4247277;27;20051;-65
2021/10/15 04:55:21;;;;;;;12.02;6.80;;;16.70;82.60;;;;;;4247333;27;20104;-68
2021/10/15 04:57:29;;;;;;;9.90;6.28;;;16.70;82.60;;;;;;4244727;27;20055;-65
2021/10/15 04:59:38;;;;;;;12.65;6.70;;;16.70;82.60;;;;;;4247402;27;20092;-65
2021/10/15 05:01:41;;;;;;;10.63;6.03;;;16.70;82.60;;;;;;4246939;27;20047;-65
2021/10/15 05:03:49;;;;;;;11.85;7.50;;;16.70;82.60;;;;;;4247099;27;20047;-69
2021/10/15 05:05:57;;;;;;;10.25;6.05;;;16.70;83.20;;;;;;4256380;27;20047;-68
2021/10/15 05:08:05;;;;;;;10.30;6.75;;;16.70;82.60;;;;;;4246805;27;20124;-67
2021/10/15 05:10:13;;;;;;;11.38;6.43;;;16.70;82.60;;;;;;4246953;27;20441;-65
2021/10/15 05:12:16;;;;;;;11.15;6.50;;;16.70;82.60;;;;;;4247133;27;20074;-66
2021/10/15 05:14:25;;;;;;;9.23;6.22;;;16.70;82.70;;;;;;4246768;27;20043;-68
2021/10/15 05:16:34;;;;;;;11.50;6.55;;;16.70;82.70;;;;;;4246891;27;20104;-67
2021/10/15 05:18:37;;;;;;;9.38;6.13;;;16.70;82.60;;;;;;4247251;27;20116;-63
2021/10/15 05:20:45;;;;;;;11.77;6.40;;;16.70;82.70;;;;;;4229814;27;20593;-67
2021/10/15 05:22:48;;;;;;;10.40;5.95;;;16.70;82.70;;;;;;4246586;27;20160;-70
2021/10/15 05:24:56;;;;;;;12.30;6.68;;;16.70;82.70;;;;;;4247886;27;20465;-72
2021/10/15 05:27:04;;;;;;;11.73;6.70;;;16.70;82.70;;;;;;4230278;27;20048;-73
2021/10/15 05:29:07;;;;;;;11.65;6.55;;;16.70;82.70;;;;;;4248050;27;20443;-67
2021/10/15 05:31:12;;;;;;;9.73;6.03;;;16.70;82.70;;;;;;4248136;27;20555;-71
2021/10/15 05:33:16;;;;;;;9.98;6.40;;;16.70;82.70;;;;;;4247911;27;20059;-66
2021/10/15 05:35:19;;;;;;;10.45;6.38;;;16.70;82.70;;;;;;4248982;27;20059;-68
2021/10/15 05:37:27;;;;;;;10.45;6.43;;;16.70;82.70;;;;;;4248429;27;20104;-75
2021/10/15 05:39:35;;;;;;;12.73;7.15;;;16.70;82.80;;;;;;4247915;27;20453;-65
2021/10/15 05:41:38;;;;;;;10.90;7.40;;;16.70;82.80;;;;;;4246857;27;20108;-64
2021/10/15 05:43:46;;;;;;;10.23;6.55;;;16.60;82.70;;;;;;4245375;27;20039;-66
2021/10/15 05:45:49;;;;;;;8.90;6.30;;;16.60;82.70;;;;;;4246921;27;20058;-70
2021/10/15 05:47:57;;;;;;;9.82;6.35;;;16.70;82.80;;;;;;4246723;27;20105;-68
2021/10/15 05:50:01;;;;;;;10.57;6.43;;;16.60;82.70;;;;;;4228464;28;20092;-67
2021/10/15 05:52:15;;;;;;;9.25;6.20;;;16.70;82.80;;;;;;4246514;27;20059;-66
2021/10/15 05:54:26;;;;;;;12.05;6.70;;;16.60;82.70;;;;;;4246523;27;20074;-64
2021/10/15 05:58:50;;;;;;;10.00;6.35;;;16.60;82.80;;;;;;4246127;27;20047;-65
2021/10/15 06:00:53;;;;;;;13.35;6.75;;;16.60;82.90;;;;;;4228271;28;20055;-68
2021/10/15 06:02:57;;;;;;;10.80;6.95;;;16.60;82.80;;;;;;4245917;27;20592;-65
2021/10/15 06:14:28;;;;;;;13.07;6.93;;;16.60;82.90;;;;;;4245866;27;20059;-66
2021/10/15 06:16:33;;;;;;;12.10;7.18;;;16.60;82.90;;;;;;4246403;27;20051;-68
2021/10/15 06:18:40;;;;;;;10.52;6.78;;;16.60;82.90;;;;;;4245827;27;20058;-65
2021/10/15 06:20:45;;;;;;;11.70;6.85;;;16.60;82.90;;;;;;4246219;27;20047;-65
2021/10/15 06:22:53;;;;;;;9.07;6.47;;;16.60;83.00;;;;;;4245932;27;20043;-66
2021/10/15 06:25:00;;;;;;;10.05;6.35;;;16.60;82.90;;;;;;4246107;27;20055;-65
2021/10/15 06:27:04;;;;;;;12.00;6.72;;;16.60;82.90;;;;;;4245569;27;20115;-67
2021/10/15 06:29:07;;;;;;;11.02;6.65;;;16.60;83.00;;;;;;4245347;27;20113;-67
2021/10/15 06:31:15;;;;;;;11.70;6.65;;;16.60;82.90;;;;;;4245875;27;20059;-63
2021/10/15 06:33:22;;;;;;;12.52;6.97;;;16.60;82.90;;;;;;4246119;27;20619;-68
2021/10/15 06:35:25;;;;;;;15.05;6.72;;;16.60;82.90;;;;;;4245943;27;20096;-68
2021/10/15 06:37:34;;;;;;;13.85;7.28;;;16.50;82.90;;;;;;4228868;28;20461;-68
2021/10/15 06:39:38;;;;;;;9.85;7.05;;;16.50;82.90;;;;;;4237668;27;20047;-69
2021/10/15 06:41:46;;;;;;;13.80;7.18;;;16.60;83.00;;;;;;4245480;27;20051;-65
2021/10/15 06:43:54;;;;;;;11.50;6.72;;;16.50;82.90;;;;;;4245782;28;20120;-63
2021/10/15 06:45:57;;;;;;;11.45;6.88;;;16.60;83.00;;;;;;4245458;28;20059;-67
2021/10/15 06:48:05;;;;;;;12.25;6.95;;;16.60;83.00;;;;;;4245773;28;20055;-67
2021/10/15 06:50:13;;;;;;;13.23;6.75;;;16.50;83.00;;;;;;4245304;27;20063;-63
2021/10/15 06:52:21;;;;;;;13.80;6.95;;;16.60;83.00;;;;;;4228470;28;20140;-68
2021/10/15 06:54:25;;;;;;;11.82;7.30;;;16.60;83.00;;;;;;4245935;28;20051;-67
2021/10/15 06:56:33;;;;;;;13.15;7.18;;;16.60;83.00;;;;;;4245886;28;20051;-65
2021/10/15 06:58:36;;;;;;;12.50;6.85;;;16.60;83.00;;;;;;4227838;28;20051;-67
2021/10/15 07:00:44;;;;;;;11.70;6.88;;;16.60;83.10;;;;;;4245321;28;20047;-69
2021/10/15 07:02:52;;;;;;;10.52;6.53;;;16.60;83.10;;;;;;4245660;28;20043;-66
2021/10/15 07:04:55;;;;;;;12.52;6.75;;;16.60;83.10;;;;;;4247169;27;20051;-65
2021/10/15 07:07:03;;;;;;;11.63;7.35;;;16.50;83.10;;;;;;4246069;27;20388;-68
2021/10/15 07:09:06;;;;;;;11.68;7.78;;;16.60;83.20;;;;;;4245342;28;20058;-64
2021/10/15 07:11:16;;;;;;;11.88;6.82;;;16.50;83.20;;;;;;4245333;28;20055;-69
2021/10/15 07:13:24;;;;;;;11.65;7.13;;;16.50;83.10;;;;;;4245610;28;20055;-68
2021/10/15 07:15:28;;;;;;;14.03;7.57;;;16.60;83.20;;;;;;4245260;28;20126;-64
2021/10/15 07:17:31;;;;;;;11.15;7.63;;;16.60;83.20;;;;;;4240459;28;20480;-68
2021/10/15 07:19:34;;;;;;;17.92;7.70;;;16.60;83.30;;;;;;4241449;28;20039;-65
2021/10/15 07:21:41;;;;;;;13.85;7.60;;;16.60;83.20;;;;;;4244164;28;20424;-65
2021/10/15 07:23:44;;;;;;;10.40;7.30;;;16.60;83.20;;;;;;4247029;27;20047;-68
2021/10/15 07:25:52;;;;;;;14.95;7.28;;;16.50;83.20;;;;;;4248488;27;20073;-68
2021/10/15 07:27:56;;;;;;;16.25;8.25;;;16.60;83.20;;;;;;4247996;27;20055;-68
2021/10/15 07:30:06;;;;;;;18.67;8.00;;;16.60;83.40;;;;;;4248427;27;20047;-67
2021/10/15 07:32:10;;;;;;;14.68;8.00;;;16.60;83.40;;;;;;4248330;27;20534;-65
2021/10/15 07:34:13;;;;;;;12.45;8.05;;;16.50;83.40;;;;;;4248601;27;20051;-65
2021/10/15 07:36:16;;;;;;;20.40;8.68;;;16.60;83.50;;;;;;4230410;27;20040;-66
2021/10/15 07:38:24;;;;;;;18.60;8.65;;;16.60;83.50;;;;;;4248328;27;20047;-65
2021/10/15 07:40:32;;;;;;;20.30;8.73;;;16.60;83.70;;;;;;4247523;27;20062;-65
2021/10/15 07:42:35;;;;;;;15.27;9.13;;;16.60;83.60;;;;;;4248412;27;20047;-65
2021/10/15 07:44:39;;;;;;;19.77;9.52;;;16.60;83.70;;;;;;4248380;27;20047;-66
2021/10/15 07:46:43;;;;;;;22.92;10.25;;;16.60;83.60;;;;;;4230312;28;20040;-67
2021/10/15 07:48:51;;;;;;;21.25;9.88;;;16.60;83.60;;;;;;4248589;27;20047;-65
2021/10/15 07:50:59;;;;;;;20.60;9.68;;;16.60;83.60;;;;;;4248298;27;20124;-64
2021/10/15 07:53:02;;;;;;;18.48;9.35;;;16.60;83.60;;;;;;4247795;27;20057;-64
2021/10/15 07:55:10;;;;;;;17.23;9.20;;;16.70;83.50;;;;;;4248360;27;20055;-65
2021/10/15 07:57:13;;;;;;;21.55;9.27;;;16.70;83.70;;;;;;4247916;27;20572;-65
2021/10/15 07:59:21;;;;;;;26.48;9.70;;;16.70;83.60;;;;;;4248319;27;20051;-68
2021/10/15 08:01:30;;;;;;;16.40;8.52;;;16.70;83.70;;;;;;4248106;27;20055;-66
2021/10/15 08:03:33;;;;;;;21.58;10.55;;;16.70;83.70;;;;;;4226228;28;20055;-67
2021/10/15 08:05:36;;;;;;;24.27;9.60;;;16.70;83.70;;;;;;4258524;27;20070;-67
2021/10/15 08:07:44;;;;;;;20.33;9.63;;;16.70;83.70;;;;;;4253777;27;20060;-68
2021/10/15 08:09:52;;;;;;;21.08;9.15;;;16.70;83.60;;;;;;4247746;27;20040;-68
2021/10/15 08:11:55;;;;;;;22.70;9.93;;;16.70;83.60;;;;;;4247843;27;20047;-69
2021/10/15 08:14:04;;;;;;;31.02;10.60;;;16.70;83.50;;;;;;4247546;27;20043;-69
2021/10/15 08:16:12;;;;;;;44.65;11.43;;;16.70;83.70;;;;;;4248017;27;20059;-69
2021/10/15 08:18:21;;;;;;;47.17;12.75;;;16.80;84.70;;;;;;4247670;27;20059;-71
2021/10/15 08:20:25;;;;;;;43.20;11.43;;;16.80;85.20;;;;;;4247551;27;20043;-71
2021/10/15 08:22:33;;;;;;;36.30;11.15;;;16.80;84.70;;;;;;4224321;27;20050;-70
2021/10/15 08:24:56;;;;;;;29.65;10.80;;;16.90;84.40;;;;;;4247829;27;20058;-70
2021/10/15 08:27:05;;;;;;;27.73;11.00;;;16.80;84.20;;;;;;4247664;27;20051;-70
2021/10/15 08:29:13;;;;;;;32.15;11.00;;;16.80;84.20;;;;;;4247068;27;20107;-71
2021/10/15 08:31:18;;;;;;;39.17;11.05;;;16.80;83.90;;;;;;4247005;27;20058;-70
2021/10/15 08:33:28;;;;;;;47.72;12.57;;;16.80;84.10;;;;;;4247219;27;20047;-69
2021/10/15 08:35:36;;;;;;;64.75;14.18;;;16.80;83.80;;;;;;4253522;27;20096;-70
2021/10/15 08:37:44;;;;;;;64.20;13.10;;;16.80;84.50;;;;;;4263014;27;20414;-69
2021/10/15 08:39:47;;;;;;;42.72;12.00;;;16.80;84.40;;;;;;4247556;27;20096;-70
2021/10/15 08:41:55;;;;;;;38.75;12.55;;;16.90;84.70;;;;;;4247396;27;20051;-68
2021/10/15 08:43:59;;;;;;;50.53;11.95;;;16.80;84.70;;;;;;4247637;27;20468;-70
2021/10/15 08:46:03;;;;;;;34.55;11.90;;;16.90;84.80;;;;;;4247573;27;20043;-69
2021/10/15 08:48:10;;;;;;;34.47;12.05;;;16.80;85.00;;;;;;4249227;27;20483;-69
2021/10/15 08:50:16;;;;;;;30.93;10.87;;;16.90;85.20;;;;;;4247342;27;20411;-70
2021/10/15 08:52:24;;;;;;;36.53;10.43;;;16.90;85.10;;;;;;4247552;27;20479;-72
2021/10/15 08:54:32;;;;;;;111.97;16.13;;;16.90;85.00;;;;;;4247187;27;20051;-69
2021/10/15 08:56:35;;;;;;;108.28;17.85;;;16.90;85.00;;;;;;4247289;27;20420;-71
2021/10/15 08:58:44;;;;;;;77.03;13.80;;;16.90;85.00;;;;;;4247440;27;20104;-67
2021/10/15 09:00:57;;;;;;;60.33;13.35;;;16.90;85.00;;;;;;4247088;27;20096;-70
2021/10/15 09:03:15;;;;;;;44.45;12.55;;;16.90;85.10;;;;;;4247538;27;20059;-67
2021/10/15 09:05:27;;;;;;;35.40;12.10;;;17.00;85.10;;;;;;4254219;27;20057;-69
2021/10/15 09:07:31;;;;;;;48.53;12.52;;;17.00;85.10;;;;;;4230225;28;20048;-69
2021/10/15 09:09:34;;;;;;;35.42;12.15;;;17.00;85.10;;;;;;4237025;27;20059;-69
2021/10/15 09:11:38;;;;;;;43.53;11.95;;;17.00;85.10;;;;;;4246916;27;20059;-70
2021/10/15 09:13:46;;;;;;;35.50;12.23;;;17.00;85.00;;;;;;4247044;27;20055;-69
2021/10/15 09:15:51;;;;;;;37.33;12.43;;;17.00;84.90;;;;;;4245495;27;20498;-66
2021/10/15 09:17:54;;;;;;;;;;;17.00;84.90;;;;;;4247725;27;20410;-68
2021/10/15 09:20:05;;;;;;;41.88;13.48;;;17.00;84.80;;;;;;4247006;27;19927;-69
2021/10/15 09:22:18;;;;;;;40.90;12.43;;;17.00;84.90;;;;;;4246746;27;20468;-66
2021/10/15 09:24:34;;;;;;;37.55;13.23;;;17.00;84.90;;;;;;4246541;27;20055;-67
2021/10/15 09:26:37;;;;;;;29.67;13.02;;;17.00;84.90;;;;;;4246845;27;20547;-69
2021/10/15 09:28:47;;;;;;;33.15;13.60;;;17.00;84.90;;;;;;4247439;27;20380;-68
2021/10/15 09:30:51;;;;;;;42.17;13.00;;;17.00;85.00;;;;;;4245355;27;20058;-69
2021/10/15 09:33:01;;;;;;;34.72;13.05;;;17.00;85.00;;;;;;4238337;27;20096;-67
2021/10/15 09:35:12;;;;;;;22.92;11.65;;;17.10;85.00;;;;;;4236826;27;20059;-68
2021/10/15 09:37:19;;;;;;;27.42;13.15;;;17.00;85.10;;;;;;4249616;27;20108;-67
2021/10/15 09:39:28;;;;;;;32.25;12.52;;;17.10;85.00;;;;;;4233835;27;20047;-67
2021/10/15 09:41:36;;;;;;;32.28;12.57;;;17.10;85.20;;;;;;4243901;27;20093;-67
2021/10/15 09:43:39;;;;;;;25.58;11.95;;;17.10;85.10;;;;;;4231088;28;20051;-66
2021/10/15 09:45:45;;;;;;;29.70;12.65;;;17.00;85.10;;;;;;4238884;27;20047;-68
2021/10/15 09:47:51;;;;;;;39.47;11.88;;;17.10;85.10;;;;;;4252149;27;20051;-67
2021/10/15 09:49:56;;;;;;;28.70;11.50;;;17.10;85.20;;;;;;4254652;27;20047;-69
2021/10/15 09:52:04;;;;;;;33.45;11.65;;;17.10;85.10;;;;;;4252309;27;20051;-66
2021/10/15 09:54:14;;;;;;;29.60;10.40;;;17.10;85.00;;;;;;4255445;27;20050;-67
2021/10/15 09:56:38;;;;;;;29.58;11.15;;;17.10;84.80;;;;;;4255279;27;20390;-69
2021/10/15 09:58:52;;;;;;;26.65;10.48;;;17.10;85.10;;;;;;4255650;27;20054;-68
2021/10/15 10:00:57;;;;;;;25.95;9.63;;;17.10;84.80;;;;;;4255764;27;20265;-69
2021/10/15 10:03:05;;;;;;;17.80;9.10;;;17.10;84.70;;;;;;4244994;27;20058;-65
2021/10/15 10:05:14;;;;;;;21.30;9.43;;;17.20;84.80;;;;;;4255573;27;20132;-69
2021/10/15 10:07:24;;;;;;;26.73;9.77;;;17.10;84.60;;;;;;4255525;27;20055;-66
2021/10/15 10:09:29;;;;;;;20.92;9.25;;;17.10;84.60;;;;;;4248977;27;20055;-67
2021/10/15 10:11:32;;;;;;;13.88;7.97;;;17.20;84.60;;;;;;4245805;27;20043;-68
2021/10/15 10:13:50;;;;;;;20.17;9.43;;;17.10;84.50;;;;;;4246217;27;20043;-67
2021/10/15 10:15:57;;;;;;;26.35;9.13;;;17.20;84.50;;;;;;4245805;27;20108;-66
2021/10/15 10:18:18;;;;;;;22.63;8.95;;;17.20;84.40;;;;;;4235628;27;20039;-67
2021/10/15 10:20:29;;;;;;;18.80;8.50;;;17.20;84.30;;;;;;4249354;27;20051;-69
2021/10/15 10:22:33;;;;;;;14.50;7.95;;;17.20;84.30;;;;;;4243299;27;20043;-68
2021/10/15 10:24:49;;;;;;;18.65;8.70;;;17.20;84.30;;;;;;4243585;27;20055;-67
2021/10/15 10:26:53;;;;;;;19.10;8.23;;;17.20;84.40;;;;;;4241453;27;20055;-66
2021/10/15 10:29:01;;;;;;;18.70;8.18;;;17.20;84.30;;;;;;4245913;27;20519;-69
2021/10/15 10:31:05;;;;;;;26.02;10.48;;;17.20;84.50;;;;;;4242416;27;20055;-70
2021/10/15 10:33:14;;;;;;;28.20;9.50;;;17.20;84.70;;;;;;4248627;27;20051;-68
2021/10/15 10:35:25;;;;;;;20.23;9.80;;;17.20;84.80;;;;;;4250073;27;20108;-69
2021/10/15 10:37:30;;;;;;;23.45;11.18;;;17.20;85.10;;;;;;4254093;27;20058;-69
2021/10/15 10:39:37;;;;;;;30.13;10.93;;;17.20;85.20;;;;;;4255176;27;20111;-70
2021/10/15 10:42:03;;;;;;;26.98;11.13;;;17.20;85.40;;;;;;4254122;27;20498;-70
2021/10/15 10:44:12;;;;;;;37.25;12.20;;;17.30;85.50;;;;;;4252234;27;20254;-70
2021/10/15 10:46:17;;;;;;;24.42;10.80;;;17.30;85.70;;;;;;4253905;28;20085;-69
2021/10/15 10:48:21;;;;;;;29.80;11.25;;;17.30;85.90;;;;;;4253109;28;20051;-70
2021/10/15 10:50:24;;;;;;;24.30;10.10;;;17.30;85.80;;;;;;4253193;27;20051;-69
2021/10/15 10:52:27;;;;;;;28.50;11.00;;;17.30;85.70;;;;;;4252903;28;20038;-68
2021/10/15 10:54:32;;;;;;;28.85;10.45;;;17.30;85.50;;;;;;4254607;28;20043;-71
2021/10/15 10:56:42;;;;;;;40.30;12.18;;;17.30;85.50;;;;;;4254849;28;20058;-69
2021/10/15 10:58:46;;;;;;;27.85;11.35;;;17.40;85.70;;;;;;4256897;27;20047;-69